sensor_id;sensor_type;location;lat;lon;timestamp;pressure;altitude;pressure_sealevel;temperature;humidity
69351;BME280;57106;51.446;-2.606;2023-05-08T02:46:43;101838.64;;;14.75;71.25
69351;BME280;57106;51.446;-2.606;2023-05-08T03:13:18;101834.12;;;14.91;69.36
69351;BME280;57106;51.446;-2.606;2023-05-08T03:32:41;101831.51;;;15.14;67.58
69351;BME280;57106;51.446;-2.606;2023-05-08T03:47:15;101825.51;;;15.00;67.88
69351;BME280;57106;51.446;-2.606;2023-05-08T04:01:51;101821.35;;;14.97;66.49
69351;BME280;57106;51.446;-2.606;2023-05-08T04:04:18;101818.98;;;14.87;67.20
69351;BME280;57106;51.446;-2.606;2023-05-08T04:18:46;101815.98;;;15.42;65.06
69351;BME280;57106;51.446;-2.606;2023-05-08T04:21:14;101814.40;;;15.55;64.62
69351;BME280;57106;51.446;-2.606;2023-05-08T04:23:38;101816.21;;;15.37;65.08
69351;BME280;57106;51.446;-2.606;2023-05-08T04:26:02;101819.90;;;15.19;65.04
69351;BME280;57106;51.446;-2.606;2023-05-08T04:30:52;101821.50;;;15.24;66.33
69351;BME280;57106;51.446;-2.606;2023-05-08T04:33:17;101824.74;;;15.35;66.24
69351;BME280;57106;51.446;-2.606;2023-05-08T04:35:43;101820.96;;;15.29;66.02
69351;BME280;57106;51.446;-2.606;2023-05-08T04:45:25;101829.60;;;15.01;66.85
69351;BME280;57106;51.446;-2.606;2023-05-08T04:47:50;101831.25;;;14.95;67.00
69351;BME280;57106;51.446;-2.606;2023-05-08T05:09:39;101829.29;;;14.57;71.34
69351;BME280;57106;51.446;-2.606;2023-05-08T05:29:03;101821.72;;;14.90;72.60
69351;BME280;57106;51.446;-2.606;2023-05-08T05:31:28;101821.33;;;15.01;72.42
69351;BME280;57106;51.446;-2.606;2023-05-08T05:33:55;101820.05;;;14.89;72.54
69351;BME280;57106;51.446;-2.606;2023-05-08T05:36:19;101823.44;;;14.92;72.65
69351;BME280;57106;51.446;-2.606;2023-05-08T05:38:45;101825.37;;;15.00;72.57
69351;BME280;57106;51.446;-2.606;2023-05-08T05:41:10;101826.86;;;14.99;72.81
69351;BME280;57106;51.446;-2.606;2023-05-08T05:43:36;101828.45;;;15.08;72.28
69351;BME280;57106;51.446;-2.606;2023-05-08T05:46:05;101823.88;;;14.92;72.72
69351;BME280;57106;51.446;-2.606;2023-05-08T05:48:27;101829.08;;;15.00;73.12
69351;BME280;57106;51.446;-2.606;2023-05-08T05:50:52;101830.64;;;15.06;73.26
69351;BME280;57106;51.446;-2.606;2023-05-08T05:53:18;101830.62;;;15.06;73.04
69351;BME280;57106;51.446;-2.606;2023-05-08T05:55:43;101830.81;;;15.03;73.46
69351;BME280;57106;51.446;-2.606;2023-05-08T05:58:08;101824.71;;;14.89;73.59
69351;BME280;57106;51.446;-2.606;2023-05-08T06:00:34;101828.86;;;14.90;73.78
69351;BME280;57106;51.446;-2.606;2023-05-08T06:03:01;101826.63;;;15.02;73.15
69351;BME280;57106;51.446;-2.606;2023-05-08T06:05:25;101825.00;;;14.85;74.39
69351;BME280;57106;51.446;-2.606;2023-05-08T06:07:51;101822.60;;;14.94;74.57
69351;BME280;57106;51.446;-2.606;2023-05-08T06:10:17;101828.06;;;14.96;74.05
69351;BME280;57106;51.446;-2.606;2023-05-08T06:12:42;101830.20;;;15.00;73.93
69351;BME280;57106;51.446;-2.606;2023-05-08T06:15:08;101829.96;;;15.09;73.92
69351;BME280;57106;51.446;-2.606;2023-05-08T06:17:33;101828.23;;;15.05;73.97
69351;BME280;57106;51.446;-2.606;2023-05-08T06:19:58;101827.62;;;14.94;74.35
69351;BME280;57106;51.446;-2.606;2023-05-08T06:22:24;101829.64;;;15.03;74.20
69351;BME280;57106;51.446;-2.606;2023-05-08T06:24:50;101827.91;;;14.98;74.71
69351;BME280;57106;51.446;-2.606;2023-05-08T06:27:15;101831.98;;;15.08;74.06
69351;BME280;57106;51.446;-2.606;2023-05-08T06:29:41;101831.95;;;14.95;74.96
69351;BME280;57106;51.446;-2.606;2023-05-08T06:32:06;101831.08;;;15.09;74.68
69351;BME280;57106;51.446;-2.606;2023-05-08T06:34:32;101832.21;;;15.14;74.09
69351;BME280;57106;51.446;-2.606;2023-05-08T06:36:57;101832.79;;;14.96;73.85
69351;BME280;57106;51.446;-2.606;2023-05-08T06:39:22;101833.17;;;15.01;74.10
69351;BME280;57106;51.446;-2.606;2023-05-08T06:41:48;101830.28;;;15.07;74.07
69351;BME280;57106;51.446;-2.606;2023-05-08T06:44:14;101830.71;;;14.98;74.19
69351;BME280;57106;51.446;-2.606;2023-05-08T06:46:39;101825.73;;;14.61;74.08
69351;BME280;57106;51.446;-2.606;2023-05-08T06:49:04;101823.55;;;14.76;74.14
69351;BME280;57106;51.446;-2.606;2023-05-08T06:51:30;101822.38;;;14.34;74.25
69351;BME280;57106;51.446;-2.606;2023-05-08T06:53:55;101826.35;;;14.53;74.28
69351;BME280;57106;51.446;-2.606;2023-05-08T06:56:21;101822.29;;;14.72;73.50
69351;BME280;57106;51.446;-2.606;2023-05-08T06:58:46;101818.82;;;14.53;74.14
69351;BME280;57106;51.446;-2.606;2023-05-08T07:01:12;101818.11;;;14.53;74.44
69351;BME280;57106;51.446;-2.606;2023-05-08T07:03:37;101815.54;;;14.66;73.65
69351;BME280;57106;51.446;-2.606;2023-05-08T07:06:03;101810.23;;;14.76;73.88
69351;BME280;57106;51.446;-2.606;2023-05-08T07:08:28;101811.07;;;14.76;73.69
69351;BME280;57106;51.446;-2.606;2023-05-08T07:10:53;101808.08;;;14.65;73.78
69351;BME280;57106;51.446;-2.606;2023-05-08T07:13:19;101811.37;;;14.76;73.90
69351;BME280;57106;51.446;-2.606;2023-05-08T07:15:44;101816.30;;;14.96;73.60
69351;BME280;57106;51.446;-2.606;2023-05-08T07:18:10;101814.01;;;15.03;73.71
69351;BME280;57106;51.446;-2.606;2023-05-08T07:20:35;101814.19;;;15.09;73.55
69351;BME280;57106;51.446;-2.606;2023-05-08T07:23:01;101811.71;;;14.96;73.44
69351;BME280;57106;51.446;-2.606;2023-05-08T07:25:26;101810.16;;;14.83;73.74
69351;BME280;57106;51.446;-2.606;2023-05-08T07:27:52;101814.11;;;14.91;73.08
69351;BME280;57106;51.446;-2.606;2023-05-08T07:30:17;101815.52;;;14.94;73.10
69351;BME280;57106;51.446;-2.606;2023-05-08T07:32:43;101816.71;;;14.91;73.22
69351;BME280;57106;51.446;-2.606;2023-05-08T07:35:08;101812.63;;;15.01;73.29
69351;BME280;57106;51.446;-2.606;2023-05-08T07:37:33;101813.80;;;14.96;72.93
69351;BME280;57106;51.446;-2.606;2023-05-08T07:39:59;101813.43;;;14.98;73.17
69351;BME280;57106;51.446;-2.606;2023-05-08T07:42:25;101804.48;;;14.90;73.94
69351;BME280;57106;51.446;-2.606;2023-05-08T07:44:50;101805.08;;;15.02;73.25
69351;BME280;57106;51.446;-2.606;2023-05-08T07:47:15;101806.03;;;15.16;73.57
69351;BME280;57106;51.446;-2.606;2023-05-08T07:49:41;101801.01;;;15.27;72.68
69351;BME280;57106;51.446;-2.606;2023-05-08T07:52:06;101798.30;;;15.29;73.44
69351;BME280;57106;51.446;-2.606;2023-05-08T07:54:32;101798.78;;;15.30;73.39
69351;BME280;57106;51.446;-2.606;2023-05-08T07:56:58;101796.73;;;15.41;73.27
69351;BME280;57106;51.446;-2.606;2023-05-08T07:59:22;101799.77;;;15.41;73.77
69351;BME280;57106;51.446;-2.606;2023-05-08T08:01:48;101801.27;;;15.57;73.04
69351;BME280;57106;51.446;-2.606;2023-05-08T08:04:13;101802.23;;;15.70;73.04
69351;BME280;57106;51.446;-2.606;2023-05-08T08:06:39;101800.10;;;15.28;74.13
69351;BME280;57106;51.446;-2.606;2023-05-08T08:09:04;101801.37;;;15.37;73.73
69351;BME280;57106;51.446;-2.606;2023-05-08T08:11:30;101795.56;;;15.42;73.87
69351;BME280;57106;51.446;-2.606;2023-05-08T08:13:56;101789.44;;;15.49;72.68
69351;BME280;57106;51.446;-2.606;2023-05-08T08:16:21;101797.49;;;15.49;73.10
69351;BME280;57106;51.446;-2.606;2023-05-08T08:18:46;101798.05;;;15.55;72.49
69351;BME280;57106;51.446;-2.606;2023-05-08T08:21:11;101794.47;;;15.23;73.68
69351;BME280;57106;51.446;-2.606;2023-05-08T08:23:37;101790.10;;;15.09;74.26
69351;BME280;57106;51.446;-2.606;2023-05-08T08:26:02;101787.62;;;15.13;74.10
69351;BME280;57106;51.446;-2.606;2023-05-08T08:28:28;101785.39;;;15.18;73.85
69351;BME280;57106;51.446;-2.606;2023-05-08T08:30:53;101782.92;;;15.36;73.69
69351;BME280;57106;51.446;-2.606;2023-05-08T08:33:19;101785.13;;;15.63;73.31
69351;BME280;57106;51.446;-2.606;2023-05-08T08:35:44;101779.74;;;15.29;73.83
69351;BME280;57106;51.446;-2.606;2023-05-08T08:38:10;101775.35;;;15.34;74.05
69351;BME280;57106;51.446;-2.606;2023-05-08T08:40:38;101774.22;;;15.53;72.96
69351;BME280;57106;51.446;-2.606;2023-05-08T08:43:00;101771.45;;;15.56;72.85
69351;BME280;57106;51.446;-2.606;2023-05-08T08:45:26;101775.72;;;15.47;73.22
69351;BME280;57106;51.446;-2.606;2023-05-08T08:47:52;101776.30;;;15.39;73.08
69351;BME280;57106;51.446;-2.606;2023-05-08T08:50:18;101772.23;;;15.32;73.73
69351;BME280;57106;51.446;-2.606;2023-05-08T08:52:46;101764.48;;;15.55;73.35
69351;BME280;57106;51.446;-2.606;2023-05-08T08:55:10;101758.92;;;15.86;73.20
69351;BME280;57106;51.446;-2.606;2023-05-08T08:57:33;101755.02;;;15.82;72.76
69351;BME280;57106;51.446;-2.606;2023-05-08T09:00:00;101751.15;;;15.83;73.47
69351;BME280;57106;51.446;-2.606;2023-05-08T09:02:25;101752.91;;;15.90;73.64
69351;BME280;57106;51.446;-2.606;2023-05-08T09:04:49;101749.27;;;15.88;72.71
69351;BME280;57106;51.446;-2.606;2023-05-08T09:07:16;101744.54;;;16.14;73.09
69351;BME280;57106;51.446;-2.606;2023-05-08T09:09:41;101747.61;;;15.90;73.40
69351;BME280;57106;51.446;-2.606;2023-05-08T09:12:06;101744.70;;;15.63;75.02
69351;BME280;57106;51.446;-2.606;2023-05-08T09:14:31;101748.05;;;16.08;74.51
69351;BME280;57106;51.446;-2.606;2023-05-08T09:16:56;101753.79;;;16.19;72.97
69351;BME280;57106;51.446;-2.606;2023-05-08T09:19:22;101753.80;;;16.25;73.01
69351;BME280;57106;51.446;-2.606;2023-05-08T09:21:48;101747.80;;;16.02;72.81
69351;BME280;57106;51.446;-2.606;2023-05-08T09:24:12;101749.83;;;15.97;73.10
69351;BME280;57106;51.446;-2.606;2023-05-08T09:26:39;101747.80;;;16.03;72.78
69351;BME280;57106;51.446;-2.606;2023-05-08T09:31:34;101748.45;;;16.36;72.80
69351;BME280;57106;51.446;-2.606;2023-05-08T09:33:54;101743.86;;;15.85;72.35
69351;BME280;57106;51.446;-2.606;2023-05-08T09:36:25;101756.52;;;16.20;72.24
69351;BME280;57106;51.446;-2.606;2023-05-08T09:38:45;101761.37;;;16.27;72.44
69351;BME280;57106;51.446;-2.606;2023-05-08T09:41:12;101767.37;;;16.13;70.97
69351;BME280;57106;51.446;-2.606;2023-05-08T09:43:36;101770.52;;;16.05;71.87
69351;BME280;57106;51.446;-2.606;2023-05-08T09:46:20;101770.35;;;15.88;72.92
69351;BME280;57106;51.446;-2.606;2023-05-08T09:48:36;101770.71;;;15.77;73.03
69351;BME280;57106;51.446;-2.606;2023-05-08T09:53:17;101759.54;;;15.83;72.71
69351;BME280;57106;51.446;-2.606;2023-05-08T09:55:46;101762.85;;;15.81;72.71
69351;BME280;57106;51.446;-2.606;2023-05-08T09:58:08;101762.62;;;15.94;72.00
69351;BME280;57106;51.446;-2.606;2023-05-08T10:00:38;101761.33;;;15.97;72.70
69351;BME280;57106;51.446;-2.606;2023-05-08T10:03:01;101756.73;;;15.96;72.09
69351;BME280;57106;51.446;-2.606;2023-05-08T10:05:26;101759.32;;;16.18;72.05
69351;BME280;57106;51.446;-2.606;2023-05-08T10:07:50;101758.19;;;15.78;72.34
69351;BME280;57106;51.446;-2.606;2023-05-08T10:10:22;101761.60;;;15.71;72.90
69351;BME280;57106;51.446;-2.606;2023-05-08T10:12:41;101762.02;;;15.66;73.25
69351;BME280;57106;51.446;-2.606;2023-05-08T10:15:07;101756.41;;;15.62;73.71
69351;BME280;57106;51.446;-2.606;2023-05-08T10:17:39;101755.05;;;15.88;72.63
69351;BME280;57106;51.446;-2.606;2023-05-08T10:19:58;101756.21;;;16.06;72.63
69351;BME280;57106;51.446;-2.606;2023-05-08T10:22:24;101751.16;;;16.12;72.62
69351;BME280;57106;51.446;-2.606;2023-05-08T10:24:49;101746.94;;;16.00;72.75
69351;BME280;57106;51.446;-2.606;2023-05-08T10:27:18;101751.04;;;16.11;72.37
69351;BME280;57106;51.446;-2.606;2023-05-08T10:29:42;101751.51;;;16.25;72.09
69351;BME280;57106;51.446;-2.606;2023-05-08T10:44:12;101727.24;;;16.10;73.10
69351;BME280;57106;51.446;-2.606;2023-05-08T10:49:11;101716.84;;;16.23;72.94
69351;BME280;57106;51.446;-2.606;2023-05-08T10:51:36;101721.42;;;15.95;73.31
69351;BME280;57106;51.446;-2.606;2023-05-08T11:01:12;101720.41;;;16.21;73.30
69351;BME280;57106;51.446;-2.606;2023-05-08T11:44:47;101695.62;;;16.49;71.73
69351;BME280;57106;51.446;-2.606;2023-05-08T11:47:16;101697.70;;;16.51;71.66
69351;BME280;57106;51.446;-2.606;2023-05-08T11:49:37;101693.36;;;16.38;71.79
69351;BME280;57106;51.446;-2.606;2023-05-08T11:52:03;101688.98;;;16.21;72.18
69351;BME280;57106;51.446;-2.606;2023-05-08T11:54:29;101690.78;;;16.43;72.20
69351;BME280;57106;51.446;-2.606;2023-05-08T11:56:54;101688.71;;;16.62;71.68
69351;BME280;57106;51.446;-2.606;2023-05-08T11:59:20;101684.76;;;16.59;71.85
69351;BME280;57106;51.446;-2.606;2023-05-08T12:01:47;101686.74;;;16.66;71.22
69351;BME280;57106;51.446;-2.606;2023-05-08T12:04:11;101683.55;;;16.95;70.32
69351;BME280;57106;51.446;-2.606;2023-05-08T12:06:36;101689.23;;;16.90;70.36
69351;BME280;57106;51.446;-2.606;2023-05-08T12:09:01;101694.91;;;16.77;70.68
69351;BME280;57106;51.446;-2.606;2023-05-08T12:11:26;101695.98;;;16.46;70.97
69351;BME280;57106;51.446;-2.606;2023-05-08T12:13:52;101693.79;;;16.62;71.63
69351;BME280;57106;51.446;-2.606;2023-05-08T12:16:17;101692.45;;;16.78;70.63
69351;BME280;57106;51.446;-2.606;2023-05-08T12:18:42;101688.20;;;16.89;70.32
69351;BME280;57106;51.446;-2.606;2023-05-08T12:21:09;101691.72;;;16.67;71.16
69351;BME280;57106;51.446;-2.606;2023-05-08T12:23:33;101690.77;;;16.54;71.95
69351;BME280;57106;51.446;-2.606;2023-05-08T12:25:59;101689.40;;;16.50;72.10
69351;BME280;57106;51.446;-2.606;2023-05-08T12:28:24;101685.13;;;16.28;72.62
69351;BME280;57106;51.446;-2.606;2023-05-08T12:30:49;101682.02;;;16.28;73.14
69351;BME280;57106;51.446;-2.606;2023-05-08T12:33:15;101678.74;;;16.22;73.64
69351;BME280;57106;51.446;-2.606;2023-05-08T12:35:40;101686.53;;;16.49;73.16
69351;BME280;57106;51.446;-2.606;2023-05-08T12:38:06;101689.50;;;16.42;72.93
69351;BME280;57106;51.446;-2.606;2023-05-08T12:40:32;101690.49;;;16.62;72.78
69351;BME280;57106;51.446;-2.606;2023-05-08T12:42:58;101684.59;;;17.01;71.86
69351;BME280;57106;51.446;-2.606;2023-05-08T12:45:23;101679.38;;;17.10;71.42
69351;BME280;57106;51.446;-2.606;2023-05-08T12:47:48;101671.20;;;17.01;72.05
69351;BME280;57106;51.446;-2.606;2023-05-08T12:50:14;101656.91;;;17.11;71.51
69351;BME280;57106;51.446;-2.606;2023-05-08T12:52:38;101651.22;;;17.17;71.12
69351;BME280;57106;51.446;-2.606;2023-05-08T12:55:04;101646.99;;;17.45;70.44
69351;BME280;57106;51.446;-2.606;2023-05-08T12:57:29;101652.98;;;17.55;70.03
69351;BME280;57106;51.446;-2.606;2023-05-08T13:00:01;101656.33;;;17.62;69.43
69351;BME280;57106;51.446;-2.606;2023-05-08T13:02:21;101652.22;;;17.75;69.00
69351;BME280;57106;51.446;-2.606;2023-05-08T13:04:45;101648.46;;;17.60;69.55
69351;BME280;57106;51.446;-2.606;2023-05-08T13:07:10;101649.62;;;17.67;69.00
69351;BME280;57106;51.446;-2.606;2023-05-08T13:09:36;101644.38;;;17.94;68.70
69351;BME280;57106;51.446;-2.606;2023-05-08T13:12:06;101634.64;;;17.71;68.82
69351;BME280;57106;51.446;-2.606;2023-05-08T13:14:26;101630.41;;;17.73;69.02
69351;BME280;57106;51.446;-2.606;2023-05-08T13:16:52;101625.21;;;18.09;68.60
69351;BME280;57106;51.446;-2.606;2023-05-08T13:19:17;101621.83;;;18.21;68.42
69351;BME280;57106;51.446;-2.606;2023-05-08T13:21:43;101622.64;;;18.46;67.47
69351;BME280;57106;51.446;-2.606;2023-05-08T13:24:08;101617.66;;;18.49;67.29
69351;BME280;57106;51.446;-2.606;2023-05-08T13:26:33;101617.00;;;18.45;67.64
69351;BME280;57106;51.446;-2.606;2023-05-08T13:28:59;101617.15;;;18.38;67.78
69351;BME280;57106;51.446;-2.606;2023-05-08T13:31:24;101615.30;;;18.34;68.08
69351;BME280;57106;51.446;-2.606;2023-05-08T13:33:50;101609.84;;;18.39;67.70
69351;BME280;57106;51.446;-2.606;2023-05-08T13:36:14;101605.68;;;18.52;67.50
69351;BME280;57106;51.446;-2.606;2023-05-08T13:38:40;101604.07;;;18.50;66.77
69351;BME280;57106;51.446;-2.606;2023-05-08T13:41:05;101604.56;;;18.69;67.29
69351;BME280;57106;51.446;-2.606;2023-05-08T13:43:31;101610.76;;;18.49;68.10
69351;BME280;57106;51.446;-2.606;2023-05-08T13:45:56;101607.09;;;18.64;67.91
69351;BME280;57106;51.446;-2.606;2023-05-08T13:48:21;101606.91;;;18.71;67.50
69351;BME280;57106;51.446;-2.606;2023-05-08T13:50:47;101606.55;;;18.63;66.98
69351;BME280;57106;51.446;-2.606;2023-05-08T13:53:12;101604.75;;;18.79;66.65
69351;BME280;57106;51.446;-2.606;2023-05-08T13:55:37;101603.57;;;18.81;66.76
69351;BME280;57106;51.446;-2.606;2023-05-08T13:58:03;101607.73;;;18.80;66.84
69351;BME280;57106;51.446;-2.606;2023-05-08T14:00:28;101604.01;;;18.76;68.17
69351;BME280;57106;51.446;-2.606;2023-05-08T14:02:53;101602.82;;;18.86;68.83
69351;BME280;57106;51.446;-2.606;2023-05-08T14:05:19;101600.19;;;18.64;70.21
69351;BME280;57106;51.446;-2.606;2023-05-08T14:07:44;101598.67;;;18.82;70.27
69351;BME280;57106;51.446;-2.606;2023-05-08T14:10:10;101594.96;;;19.00;69.64
69351;BME280;57106;51.446;-2.606;2023-05-08T14:12:35;101593.36;;;18.95;69.91
69351;BME280;57106;51.446;-2.606;2023-05-08T14:15:00;101589.47;;;18.76;70.84
69351;BME280;57106;51.446;-2.606;2023-05-08T14:17:25;101583.75;;;18.65;71.76
69351;BME280;57106;51.446;-2.606;2023-05-08T14:19:51;101584.68;;;18.43;72.14
69351;BME280;57106;51.446;-2.606;2023-05-08T14:22:16;101582.84;;;18.40;72.49
69351;BME280;57106;51.446;-2.606;2023-05-08T14:24:41;101582.49;;;18.38;72.24
69351;BME280;57106;51.446;-2.606;2023-05-08T14:27:07;101578.91;;;18.19;72.73
69351;BME280;57106;51.446;-2.606;2023-05-08T14:29:32;101577.67;;;17.95;74.28
69351;BME280;57106;51.446;-2.606;2023-05-08T14:31:58;101577.90;;;18.19;73.62
69351;BME280;57106;51.446;-2.606;2023-05-08T14:34:23;101574.79;;;18.12;73.58
69351;BME280;57106;51.446;-2.606;2023-05-08T14:36:49;101575.65;;;18.26;73.82
69351;BME280;57106;51.446;-2.606;2023-05-08T14:39:13;101576.87;;;17.99;74.75
69351;BME280;57106;51.446;-2.606;2023-05-08T14:41:39;101580.76;;;18.01;74.55
69351;BME280;57106;51.446;-2.606;2023-05-08T14:44:05;101582.36;;;17.87;74.74
69351;BME280;57106;51.446;-2.606;2023-05-08T14:46:30;101588.05;;;17.76;75.49
69351;BME280;57106;51.446;-2.606;2023-05-08T14:48:55;101591.64;;;17.75;75.49
69351;BME280;57106;51.446;-2.606;2023-05-08T14:51:21;101591.12;;;17.56;76.73
69351;BME280;57106;51.446;-2.606;2023-05-08T14:53:46;101583.65;;;17.65;76.68
69351;BME280;57106;51.446;-2.606;2023-05-08T14:56:11;101582.01;;;17.48;77.72
69351;BME280;57106;51.446;-2.606;2023-05-08T14:58:36;101579.90;;;17.43;77.58
69351;BME280;57106;51.446;-2.606;2023-05-08T15:01:02;101580.99;;;17.51;77.19
69351;BME280;57106;51.446;-2.606;2023-05-08T15:03:27;101578.62;;;17.49;77.44
69351;BME280;57106;51.446;-2.606;2023-05-08T15:05:53;101576.78;;;17.53;77.63
69351;BME280;57106;51.446;-2.606;2023-05-08T15:08:19;101578.15;;;17.55;78.03
69351;BME280;57106;51.446;-2.606;2023-05-08T15:10:44;101574.77;;;17.59;78.28
69351;BME280;57106;51.446;-2.606;2023-05-08T15:13:08;101569.23;;;17.56;77.73
69351;BME280;57106;51.446;-2.606;2023-05-08T15:15:34;101567.12;;;17.55;77.55
69351;BME280;57106;51.446;-2.606;2023-05-08T15:18:00;101564.79;;;17.34;78.73
69351;BME280;57106;51.446;-2.606;2023-05-08T15:20:25;101566.29;;;17.53;77.72
69351;BME280;57106;51.446;-2.606;2023-05-08T15:22:51;101566.78;;;17.63;77.24
69351;BME280;57106;51.446;-2.606;2023-05-08T15:25:17;101566.87;;;17.47;77.19
69351;BME280;57106;51.446;-2.606;2023-05-08T15:27:42;101565.06;;;17.26;78.02
69351;BME280;57106;51.446;-2.606;2023-05-08T15:30:08;101565.41;;;17.42;77.54
69351;BME280;57106;51.446;-2.606;2023-05-08T15:32:32;101560.60;;;17.36;77.35
69351;BME280;57106;51.446;-2.606;2023-05-08T15:34:58;101557.88;;;17.32;77.55
69351;BME280;57106;51.446;-2.606;2023-05-08T15:37:24;101556.92;;;17.18;78.42
69351;BME280;57106;51.446;-2.606;2023-05-08T15:39:49;101561.13;;;17.11;78.16
69351;BME280;57106;51.446;-2.606;2023-05-08T15:42:14;101560.04;;;17.18;78.29
69351;BME280;57106;51.446;-2.606;2023-05-08T15:44:40;101560.42;;;17.10;78.77
69351;BME280;57106;51.446;-2.606;2023-05-08T15:47:05;101557.63;;;16.88;79.23
69351;BME280;57106;51.446;-2.606;2023-05-08T15:49:31;101559.36;;;16.78;79.78
69351;BME280;57106;51.446;-2.606;2023-05-08T15:51:56;101563.43;;;16.79;79.70
69351;BME280;57106;51.446;-2.606;2023-05-08T15:54:21;101556.70;;;16.94;79.32
69351;BME280;57106;51.446;-2.606;2023-05-08T15:56:48;101549.82;;;17.04;78.94
69351;BME280;57106;51.446;-2.606;2023-05-08T15:59:12;101552.80;;;16.76;79.56
69351;BME280;57106;51.446;-2.606;2023-05-08T16:01:38;101551.97;;;16.73;79.61
69351;BME280;57106;51.446;-2.606;2023-05-08T16:04:03;101542.13;;;16.79;79.48
69351;BME280;57106;51.446;-2.606;2023-05-08T16:06:28;101538.51;;;16.73;79.60
69351;BME280;57106;51.446;-2.606;2023-05-08T16:08:54;101538.46;;;16.87;79.37
69351;BME280;57106;51.446;-2.606;2023-05-08T16:11:19;101537.55;;;17.07;78.78
69351;BME280;57106;51.446;-2.606;2023-05-08T16:13:45;101535.68;;;17.17;78.37
69351;BME280;57106;51.446;-2.606;2023-05-08T16:16:10;101533.49;;;17.14;78.22
69351;BME280;57106;51.446;-2.606;2023-05-08T16:18:36;101534.15;;;17.01;78.91
69351;BME280;57106;51.446;-2.606;2023-05-08T16:37:58;101516.07;;;17.27;78.67
69351;BME280;57106;51.446;-2.606;2023-05-08T16:40:24;101521.66;;;17.11;78.60
69351;BME280;57106;51.446;-2.606;2023-05-08T16:42:50;101520.44;;;17.12;78.54
69351;BME280;57106;51.446;-2.606;2023-05-08T16:45:15;101514.72;;;17.18;77.89
69351;BME280;57106;51.446;-2.606;2023-05-08T16:47:42;101519.86;;;17.12;78.48
69351;BME280;57106;51.446;-2.606;2023-05-08T16:50:07;101516.52;;;17.15;78.35
69351;BME280;57106;51.446;-2.606;2023-05-08T16:52:31;101512.94;;;17.22;78.41
69351;BME280;57106;51.446;-2.606;2023-05-08T16:54:57;101512.30;;;17.14;78.67
69351;BME280;57106;51.446;-2.606;2023-05-08T16:57:22;101514.79;;;17.08;78.86
69351;BME280;57106;51.446;-2.606;2023-05-08T16:59:48;101515.98;;;17.11;78.46
69351;BME280;57106;51.446;-2.606;2023-05-08T17:02:13;101516.23;;;16.99;78.63
69351;BME280;57106;51.446;-2.606;2023-05-08T17:04:38;101517.51;;;16.95;79.05
69351;BME280;57106;51.446;-2.606;2023-05-08T17:07:04;101518.31;;;17.10;78.94
69351;BME280;57106;51.446;-2.606;2023-05-08T17:09:29;101516.25;;;16.88;79.24
69351;BME280;57106;51.446;-2.606;2023-05-08T17:11:55;101514.69;;;17.02;79.13
69351;BME280;57106;51.446;-2.606;2023-05-08T17:14:20;101516.63;;;17.08;79.03
69351;BME280;57106;51.446;-2.606;2023-05-08T17:16:45;101516.34;;;17.08;79.15
69351;BME280;57106;51.446;-2.606;2023-05-08T17:19:12;101515.35;;;17.15;78.63
69351;BME280;57106;51.446;-2.606;2023-05-08T18:00:22;101514.86;;;17.18;78.76
69351;BME280;57106;51.446;-2.606;2023-05-08T18:10:06;101513.50;;;16.58;80.69
69351;BME280;57106;51.446;-2.606;2023-05-08T18:12:31;101520.93;;;16.59;81.17
69351;BME280;57106;51.446;-2.606;2023-05-08T18:14:55;101520.19;;;16.64;81.01
69351;BME280;57106;51.446;-2.606;2023-05-08T18:17:20;101520.32;;;16.69;80.77
69351;BME280;57106;51.446;-2.606;2023-05-08T18:19:46;101518.63;;;16.64;80.86
69351;BME280;57106;51.446;-2.606;2023-05-08T18:22:11;101522.03;;;16.51;81.13
69351;BME280;57106;51.446;-2.606;2023-05-08T18:24:37;101520.22;;;16.44;81.83
69351;BME280;57106;51.446;-2.606;2023-05-08T18:27:03;101514.42;;;16.55;81.33
69351;BME280;57106;51.446;-2.606;2023-05-08T18:29:28;101506.20;;;16.41;81.74
69351;BME280;57106;51.446;-2.606;2023-05-08T18:31:53;101488.91;;;16.51;81.47
69351;BME280;57106;51.446;-2.606;2023-05-08T18:34:19;101484.98;;;16.50;81.29
69351;BME280;57106;51.446;-2.606;2023-05-08T18:36:50;101480.23;;;16.45;81.69
69351;BME280;57106;51.446;-2.606;2023-05-08T18:39:09;101479.84;;;16.37;81.68
69351;BME280;57106;51.446;-2.606;2023-05-08T18:41:34;101477.48;;;16.54;81.66
69351;BME280;57106;51.446;-2.606;2023-05-08T18:44:00;101474.82;;;16.54;81.08
69351;BME280;57106;51.446;-2.606;2023-05-08T19:00:58;101470.05;;;16.37;82.37
69351;BME280;57106;51.446;-2.606;2023-05-08T19:03:24;101466.61;;;16.35;82.91
69351;BME280;57106;51.446;-2.606;2023-05-08T19:05:48;101461.26;;;16.45;82.44
69351;BME280;57106;51.446;-2.606;2023-05-08T19:08:14;101445.02;;;16.27;83.24
69351;BME280;57106;51.446;-2.606;2023-05-08T19:10:41;101409.70;;;15.83;84.62
69351;BME280;57106;51.446;-2.606;2023-05-08T19:13:05;101397.67;;;15.65;86.05
69351;BME280;57106;51.446;-2.606;2023-05-08T19:15:31;101387.88;;;15.71;86.32
69351;BME280;57106;51.446;-2.606;2023-05-08T19:17:55;101393.41;;;15.73;85.78
69351;BME280;57106;51.446;-2.606;2023-05-08T19:20:21;101401.06;;;15.66;85.90
69351;BME280;57106;51.446;-2.606;2023-05-08T19:22:47;101397.51;;;15.92;84.89
69351;BME280;57106;51.446;-2.606;2023-05-08T19:25:12;101402.80;;;16.12;83.93
69351;BME280;57106;51.446;-2.606;2023-05-08T19:27:38;101403.49;;;16.21;83.68
69351;BME280;57106;51.446;-2.606;2023-05-08T19:32:31;101418.25;;;16.47;83.15
69351;BME280;57106;51.446;-2.606;2023-05-08T19:34:53;101424.53;;;16.52;82.67
69351;BME280;57106;51.446;-2.606;2023-05-08T19:37:23;101430.61;;;16.48;82.84
69351;BME280;57106;51.446;-2.606;2023-05-08T19:39:45;101437.05;;;16.47;82.78
69351;BME280;57106;51.446;-2.606;2023-05-08T19:44:35;101443.73;;;16.49;82.38
69351;BME280;57106;51.446;-2.606;2023-05-08T19:47:02;101439.82;;;16.51;82.17
69351;BME280;57106;51.446;-2.606;2023-05-08T19:49:26;101437.03;;;16.40;82.09